createdAt,value
2022-08-11T00:01:16.404Z,97073.78
2022-08-11T00:03:47.333Z,97073.59
2022-08-11T00:06:24.230Z,97071.94
2022-08-11T00:08:54.416Z,97065.41
2022-08-11T00:11:24.081Z,97062.88
2022-08-11T00:13:55.306Z,97063.72
2022-08-11T00:16:25.863Z,97063.06
2022-08-11T00:18:55.384Z,97058.69
2022-08-11T00:22:01.989Z,97058.53
2022-08-11T00:24:14.326Z,97060.88
2022-08-11T00:26:48.129Z,97062.88
2022-08-11T00:29:16.408Z,97064.22
2022-08-11T00:31:47.002Z,97071.28
2022-08-11T00:34:18.613Z,97063.88
2022-08-11T00:36:51.376Z,97063.22
2022-08-11T00:39:28.662Z,97066.56
2022-08-11T00:42:11.901Z,97069.09
2022-08-11T00:44:51.031Z,97067.91
2022-08-11T00:47:28.092Z,97074.94
2022-08-11T00:50:08.862Z,97078.13
2022-08-11T00:53:00.684Z,97064.22
2022-08-11T00:56:11.309Z,97067.22
2022-08-11T00:59:35.213Z,97070.25
2022-08-11T01:02:18.449Z,97060.53
2022-08-11T01:05:15.882Z,97066.72
2022-08-11T01:08:15.701Z,97056.66
2022-08-11T01:11:10.280Z,97059.34
2022-08-11T01:14:06.676Z,97069.06
2022-08-11T01:16:59.537Z,97064.88
2022-08-11T01:20:45.020Z,97057.34
2022-08-11T01:23:19.965Z,97074.59
2022-08-11T01:26:23.364Z,97069.72
2022-08-11T01:29:26.041Z,97065.53
2022-08-11T01:32:35.191Z,97065.13
2022-08-11T01:35:35.892Z,97063.09
2022-08-11T01:38:56.728Z,97060.22
2022-08-11T01:42:18.398Z,97055.34
2022-08-11T01:45:07.907Z,97050.81
2022-08-11T01:47:54.442Z,97062.00
2022-08-11T01:50:38.171Z,97053.63
2022-08-11T01:53:16.784Z,97053.91
2022-08-11T01:55:55.134Z,97052.59
2022-08-11T01:58:44.274Z,97058.91
2022-08-11T02:01:29.596Z,97050.88
2022-08-11T02:04:07.447Z,97049.84
2022-08-11T02:06:56.230Z,97043.75
2022-08-11T02:10:35.114Z,97041.91
2022-08-11T02:13:10.710Z,97040.84
2022-08-11T02:15:46.947Z,97046.16
2022-08-11T02:18:22.879Z,97030.72
2022-08-11T02:21:14.741Z,97036.19
2022-08-11T02:24:04.146Z,97036.50
2022-08-11T02:26:41.831Z,97041.50
2022-08-11T02:29:19.870Z,97029.34
2022-08-11T02:32:29.569Z,97031.50
2022-08-11T02:35:11.065Z,97036.63
2022-08-11T02:37:47.954Z,97037.94
2022-08-11T02:40:36.511Z,97037.72
2022-08-11T02:43:12.079Z,97034.66
2022-08-11T02:45:49.247Z,97041.16
2022-08-11T02:48:55.929Z,97031.94
2022-08-11T02:51:40.103Z,97035.75
2022-08-11T02:54:16.098Z,97037.38
2022-08-11T02:56:55.939Z,97035.16
2022-08-11T02:59:53.415Z,97033.78
2022-08-11T03:02:33.097Z,97032.69
2022-08-11T03:05:09.150Z,97026.13
2022-08-11T03:07:52.453Z,97030.09
2022-08-11T03:10:24.909Z,97029.63
2022-08-11T03:13:17.323Z,97030.16
2022-08-11T03:16:10.854Z,97031.44
2022-08-11T03:18:45.766Z,97023.97
2022-08-11T03:21:22.013Z,97026.09
2022-08-11T03:23:56.915Z,97030.69
2022-08-11T03:26:31.670Z,97027.31
2022-08-11T03:29:07.774Z,97034.78
2022-08-11T03:31:42.635Z,97032.72
2022-08-11T03:34:18.381Z,97043.41
2022-08-11T03:37:16.171Z,97049.31
2022-08-11T03:39:59.178Z,97056.75
2022-08-11T03:42:40.705Z,97051.59
2022-08-11T03:45:22.915Z,97050.75
2022-08-11T03:48:07.114Z,97059.22
2022-08-11T03:50:55.418Z,97053.88
2022-08-11T03:53:49.074Z,97058.06
2022-08-11T03:56:44.147Z,97055.28
2022-08-11T03:59:35.046Z,97058.13
2022-08-11T04:02:25.780Z,97060.94
2022-08-11T04:05:28.187Z,97058.72
2022-08-11T04:08:34.373Z,97057.00
2022-08-11T04:11:37.920Z,97050.59
2022-08-11T04:15:01.769Z,97050.06
2022-08-11T04:17:57.659Z,97052.47
2022-08-11T04:20:58.316Z,97055.56
2022-08-11T04:24:35.794Z,97056.00
2022-08-11T04:26:53.198Z,97051.34
2022-08-11T04:30:03.518Z,97053.31
2022-08-11T04:32:43.036Z,97050.97
2022-08-11T04:35:25.541Z,97044.06
2022-08-11T04:38:16.300Z,97054.47
2022-08-11T04:41:20.103Z,97054.47
2022-08-11T04:44:47.337Z,97047.31
2022-08-11T04:48:01.668Z,97057.56
2022-08-11T04:51:08.782Z,97058.78
2022-08-11T04:54:13.540Z,97050.53
2022-08-11T04:57:02.430Z,97054.16
2022-08-11T05:00:20.060Z,97059.78
2022-08-11T05:03:24.540Z,97065.81
2022-08-11T05:06:43.994Z,97059.66
2022-08-11T05:09:35.928Z,97068.19
2022-08-11T05:12:16.623Z,97060.59
2022-08-11T05:15:08.221Z,97061.16
2022-08-11T05:17:58.058Z,97058.06
2022-08-11T05:20:45.305Z,97062.94
2022-08-11T05:23:31.599Z,97064.88
2022-08-11T05:26:47.981Z,97061.75
2022-08-11T05:29:57.811Z,97058.53
2022-08-11T05:32:48.652Z,97061.44
2022-08-11T05:36:01.704Z,97059.00
2022-08-11T05:38:36.983Z,97064.44
2022-08-11T05:41:25.536Z,97067.19
2022-08-11T05:44:19.869Z,97067.00
2022-08-11T05:47:08.707Z,97065.63
2022-08-11T05:49:55.275Z,97063.19
2022-08-11T05:52:46.872Z,97060.34
2022-08-11T05:55:34.997Z,97062.09
2022-08-11T05:58:06.858Z,97064.38
2022-08-11T06:00:43.340Z,97065.13
2022-08-11T06:03:12.172Z,97064.88
2022-08-11T06:05:43.481Z,97060.00
2022-08-11T06:08:13.797Z,97058.84
2022-08-11T06:10:44.257Z,97057.13
2022-08-11T06:13:18.544Z,97063.09
2022-08-11T06:15:48.486Z,97064.81
2022-08-11T06:18:17.636Z,97058.66
2022-08-11T06:20:48.759Z,97061.03
2022-08-11T06:23:20.535Z,97064.78
2022-08-11T06:25:49.596Z,97068.63
2022-08-11T06:28:22.587Z,97063.50
2022-08-11T06:30:51.460Z,97058.03
2022-08-11T06:33:30.692Z,97060.19
2022-08-11T06:36:04.845Z,97060.19
2022-08-11T06:38:48.325Z,97062.75
2022-08-11T06:41:34.405Z,97057.19
2022-08-11T06:44:16.354Z,97063.91
2022-08-11T06:46:48.567Z,97066.03
2022-08-11T06:49:36.980Z,97057.34
2022-08-11T06:52:07.635Z,97055.00
2022-08-11T06:55:05.514Z,97066.22
2022-08-11T06:57:54.148Z,97055.94
2022-08-11T07:00:33.172Z,97059.44
2022-08-11T07:03:08.748Z,97058.38
2022-08-11T07:05:45.858Z,97064.41
2022-08-11T07:08:59.517Z,97050.09
2022-08-11T07:12:32.764Z,97053.91
2022-08-11T07:15:22.196Z,97056.75
2022-08-11T07:18:16.098Z,97052.81
2022-08-11T07:21:02.962Z,97059.00
2022-08-11T07:24:04.192Z,97058.47
2022-08-11T07:26:51.848Z,97054.50
2022-08-11T07:29:21.343Z,97048.72
2022-08-11T07:31:53.947Z,97056.09
2022-08-11T07:34:29.159Z,97055.03
2022-08-11T07:36:58.774Z,97048.91
2022-08-11T07:39:28.236Z,97057.38
2022-08-11T07:41:59.452Z,97049.97
2022-08-11T07:44:34.813Z,97043.53
2022-08-11T07:47:47.686Z,97051.16
2022-08-11T07:50:35.196Z,97040.97
2022-08-11T07:53:05.181Z,97046.84
2022-08-11T07:55:50.293Z,97041.56
2022-08-11T07:58:44.937Z,97044.25
2022-08-11T08:01:37.171Z,97039.69
2022-08-11T08:04:24.609Z,97035.06
2022-08-11T08:07:12.129Z,97031.16
2022-08-11T08:09:58.390Z,97042.44
2022-08-11T08:12:45.265Z,97037.69
2022-08-11T08:15:32.597Z,97048.09
2022-08-11T08:18:20.729Z,97041.97
2022-08-11T08:20:51.437Z,97040.19
2022-08-11T08:23:33.250Z,97044.63
2022-08-11T08:26:03.475Z,97033.44
2022-08-11T08:28:32.768Z,97040.72
2022-08-11T08:31:00.467Z,97041.34
2022-08-11T08:33:31.640Z,97037.44
2022-08-11T08:36:12.674Z,97038.84
2022-08-11T08:38:47.563Z,97037.78
2022-08-11T08:41:20.684Z,97035.00
2022-08-11T08:43:52.845Z,97042.69
2022-08-11T08:46:27.422Z,97041.91
2022-08-11T08:48:56.532Z,97039.13
2022-08-11T08:51:58.536Z,97042.81
2022-08-11T08:54:35.524Z,97045.28
2022-08-11T08:57:05.139Z,97044.09
2022-08-11T08:59:47.541Z,97029.69
2022-08-11T09:02:34.328Z,97041.44
2022-08-11T09:05:05.203Z,97036.94
2022-08-11T09:07:39.152Z,97034.47
2022-08-11T09:10:11.880Z,97053.72
2022-08-11T09:12:42.280Z,97036.44
2022-08-11T09:15:12.455Z,97051.22
2022-08-11T09:17:43.183Z,97049.47
2022-08-11T09:20:23.891Z,97048.75
2022-08-11T09:24:08.843Z,97049.47
2022-08-11T09:26:20.993Z,97052.47
2022-08-11T09:28:50.150Z,97047.13
2022-08-11T09:31:18.407Z,97048.72
2022-08-11T09:33:53.133Z,97058.78
2022-08-11T09:36:39.839Z,97043.63
2022-08-11T09:39:31.246Z,97054.31
2022-08-11T09:42:03.487Z,97049.25
2022-08-11T09:44:48.942Z,97049.53
2022-08-11T09:47:24.480Z,97042.09
2022-08-11T09:49:54.712Z,97048.63
2022-08-11T09:52:25.853Z,97053.59
2022-08-11T09:54:54.514Z,97056.47
2022-08-11T09:57:40.955Z,97049.66
2022-08-11T10:00:13.572Z,97037.44
2022-08-11T10:02:45.076Z,97026.34
2022-08-11T10:05:33.287Z,97032.75
2022-08-11T10:08:03.861Z,97029.47
2022-08-11T10:10:36.907Z,97033.22
2022-08-11T10:14:03.670Z,97034.09
2022-08-11T10:16:00.107Z,97028.13
2022-08-11T10:18:49.522Z,97030.63
2022-08-11T10:21:28.174Z,97027.75
2022-08-11T10:24:17.497Z,97032.09
2022-08-11T10:26:54.415Z,97027.56
2022-08-11T10:29:44.453Z,97014.03
2022-08-11T10:32:52.167Z,97018.81
2022-08-11T10:35:27.137Z,97023.31
2022-08-11T10:38:07.414Z,97009.78
2022-08-11T10:40:40.048Z,97011.03
2022-08-11T10:43:13.553Z,97012.28
2022-08-11T10:46:03.071Z,97011.03
2022-08-11T10:48:33.005Z,97002.94
2022-08-11T10:51:25.633Z,97001.09
2022-08-11T10:54:24.351Z,96991.94
2022-08-11T10:57:13.117Z,96984.69
2022-08-11T10:59:42.765Z,96981.53
2022-08-11T11:02:15.076Z,96983.66
2022-08-11T11:04:58.988Z,96992.78
2022-08-11T11:07:41.423Z,96981.78
2022-08-11T11:10:12.578Z,96993.03
2022-08-11T11:13:03.145Z,96976.19
2022-08-11T11:15:50.217Z,96977.63
2022-08-11T11:18:22.268Z,96974.94
2022-08-11T11:20:55.618Z,96968.69
2022-08-11T11:23:28.024Z,96970.78
2022-08-11T11:26:27.456Z,96968.28
2022-08-11T11:29:28.863Z,96968.28
2022-08-11T11:32:17.942Z,96955.81
2022-08-11T11:35:31.484Z,96960.00
2022-08-11T11:38:04.398Z,96962.06
2022-08-11T11:40:34.636Z,96963.50
2022-08-11T11:43:03.734Z,96950.81
2022-08-11T11:45:33.318Z,96940.84
2022-08-11T11:48:02.074Z,96947.91
2022-08-11T11:50:33.078Z,96946.03
2022-08-11T11:53:04.727Z,96946.66
2022-08-11T11:55:33.241Z,96961.44
2022-08-11T11:58:21.085Z,96945.59
2022-08-11T12:01:10.886Z,96949.56
2022-08-11T12:03:40.772Z,96941.03
2022-08-11T12:06:12.112Z,96935.81
2022-08-11T12:08:40.195Z,96934.38
2022-08-11T12:11:28.415Z,96935.81
2022-08-11T12:13:59.712Z,96932.91
2022-08-11T12:16:34.484Z,96933.13
2022-08-11T12:19:06.389Z,96935.59
2022-08-11T12:21:36.539Z,96930.22
2022-08-11T12:24:23.266Z,96938.09
2022-08-11T12:27:17.867Z,96929.97
2022-08-11T12:29:54.517Z,96926.00
2022-08-11T12:32:27.358Z,96926.19
2022-08-11T12:34:57.803Z,96923.72
2022-08-11T12:37:31.237Z,96919.56
2022-08-11T12:40:43.227Z,96920.56
2022-08-11T12:43:38.029Z,96927.25
2022-08-11T12:46:12.004Z,96914.97
2022-08-11T12:49:04.676Z,96916.44
2022-08-11T12:52:13.965Z,96913.47
2022-08-11T12:54:51.756Z,96906.16
2022-08-11T12:57:44.404Z,96898.09
2022-08-11T13:00:31.294Z,96889.34
2022-08-11T13:03:17.928Z,96896.13
2022-08-11T13:05:49.546Z,96894.88
2022-08-11T13:08:18.700Z,96891.78
2022-08-11T13:11:20.042Z,96881.19
2022-08-11T13:13:55.408Z,96885.28
2022-08-11T13:16:27.662Z,96895.25
2022-08-11T13:18:57.348Z,96887.34
2022-08-11T13:21:28.070Z,96880.66
2022-08-11T13:24:00.872Z,96885.06
2022-08-11T13:26:48.561Z,96877.78
2022-08-11T13:29:26.282Z,96872.16
2022-08-11T13:31:56.125Z,96876.72
2022-08-11T13:34:26.812Z,96880.63
2022-08-11T13:36:59.308Z,96870.00
2022-08-11T13:39:29.479Z,96875.22
2022-08-11T13:41:59.491Z,96866.53
2022-08-11T13:44:29.898Z,96846.25
2022-08-11T13:47:01.363Z,96848.13
2022-08-11T13:49:31.339Z,96859.72
2022-08-11T13:52:01.289Z,96859.56
2022-08-11T13:54:33.181Z,96854.75
2022-08-11T13:57:08.163Z,96860.19
2022-08-11T13:59:52.303Z,96853.06
2022-08-11T14:02:29.042Z,96848.44
2022-08-11T14:05:00.236Z,96843.47
2022-08-11T14:07:35.817Z,96843.03
2022-08-11T14:10:05.517Z,96843.44
2022-08-11T14:12:53.319Z,96841.50
2022-08-11T14:15:25.254Z,96844.22
2022-08-11T14:17:57.261Z,96839.66
2022-08-11T14:20:45.897Z,96827.38
2022-08-11T14:23:15.758Z,96825.72
2022-08-11T14:26:04.752Z,96831.34
2022-08-11T14:28:40.298Z,96823.81
2022-08-11T14:31:10.291Z,96823.31
2022-08-11T14:34:00.409Z,96826.41
2022-08-11T14:36:29.724Z,96828.25
2022-08-11T14:38:59.774Z,96823.94
2022-08-11T14:42:11.893Z,96823.06
2022-08-11T14:44:54.198Z,96821.25
2022-08-11T14:47:25.441Z,96816.88
2022-08-11T14:50:09.416Z,96815.59
2022-08-11T14:52:44.627Z,96803.56
2022-08-11T14:55:32.306Z,96804.09
2022-08-11T14:58:01.980Z,96806.63
2022-08-11T15:00:30.938Z,96804.88
2022-08-11T15:03:12.272Z,96796.97
2022-08-11T15:05:56.377Z,96800.50
2022-08-11T15:08:42.715Z,96797.16
2022-08-11T15:11:27.823Z,96795.44
2022-08-11T15:13:57.197Z,96789.03
2022-08-11T15:16:43.557Z,96780.31
2022-08-11T15:19:13.103Z,96780.69
2022-08-11T15:21:59.004Z,96791.47
2022-08-11T15:24:28.001Z,96777.97
2022-08-11T15:27:21.816Z,96777.06
2022-08-11T15:30:09.795Z,96778.50
2022-08-11T15:33:04.949Z,96786.66
2022-08-11T15:35:53.583Z,96777.41
2022-08-11T15:38:23.243Z,96771.38
2022-08-11T15:41:13.831Z,96769.69
2022-08-11T15:44:04.151Z,96773.47
2022-08-11T15:46:34.999Z,96770.97
2022-08-11T15:49:09.696Z,96768.72
2022-08-11T15:51:41.030Z,96765.59
2022-08-11T15:54:12.675Z,96765.59
2022-08-11T15:56:45.136Z,96754.19
2022-08-11T15:59:43.150Z,96756.88
2022-08-11T16:02:32.531Z,96758.53
2022-08-11T16:05:04.153Z,96761.88
2022-08-11T16:07:38.476Z,96758.09
2022-08-11T16:10:15.609Z,96759.81
2022-08-11T16:13:20.275Z,96750.59
2022-08-11T16:16:09.851Z,96757.31
2022-08-11T16:18:47.113Z,96763.16
2022-08-11T16:21:34.371Z,96752.09
2022-08-11T16:24:08.668Z,96743.09
2022-08-11T16:27:08.156Z,96744.63
2022-08-11T16:29:43.903Z,96741.91
2022-08-11T16:32:19.155Z,96754.19
2022-08-11T16:35:07.272Z,96744.00
2022-08-11T16:37:54.144Z,96750.72
2022-08-11T16:40:23.964Z,96741.97
2022-08-11T16:43:11.767Z,96739.25
2022-08-11T16:45:59.005Z,96742.38
2022-08-11T16:48:36.001Z,96743.66
2022-08-11T16:51:06.740Z,96741.19
2022-08-11T16:54:00.247Z,96748.25
2022-08-11T16:56:26.246Z,96739.97
2022-08-11T16:59:14.688Z,96740.41
2022-08-11T17:01:46.008Z,96738.97
2022-08-11T17:04:39.182Z,96735.19
2022-08-11T17:07:40.264Z,96738.38
2022-08-11T17:10:51.008Z,96734.88
2022-08-11T17:13:27.115Z,96741.78
2022-08-11T17:16:12.597Z,96735.13
2022-08-11T17:18:51.420Z,96742.63
2022-08-11T17:21:26.238Z,96744.97
2022-08-11T17:23:57.101Z,96736.22
2022-08-11T17:26:51.501Z,96726.03
2022-08-11T17:29:22.938Z,96727.75
2022-08-11T17:32:09.118Z,96729.00
2022-08-11T17:34:56.399Z,96730.31
2022-08-11T17:37:26.062Z,96723.19
2022-08-11T17:39:56.230Z,96730.34
2022-08-11T17:42:47.278Z,96730.75
2022-08-11T17:45:34.178Z,96727.66
2022-08-11T17:48:19.904Z,96736.22
2022-08-11T17:50:49.356Z,96734.38
2022-08-11T17:53:36.815Z,96731.88
2022-08-11T17:56:28.902Z,96734.19
2022-08-11T17:59:16.518Z,96729.63
2022-08-11T18:01:45.534Z,96728.38
2022-08-11T18:04:19.444Z,96738.22
2022-08-11T18:06:48.617Z,96739.66
2022-08-11T18:09:38.578Z,96741.16
2022-08-11T18:12:26.384Z,96739.31
2022-08-11T18:15:13.641Z,96741.16
2022-08-11T18:17:59.770Z,96737.47
2022-08-11T18:20:45.898Z,96746.41
2022-08-11T18:23:41.708Z,96734.53
2022-08-11T18:26:37.518Z,96741.44
2022-08-11T18:29:25.729Z,96743.34
2022-08-11T18:32:21.949Z,96743.53
2022-08-11T18:35:11.019Z,96751.06
2022-08-11T18:38:03.743Z,96755.22
2022-08-11T18:40:50.506Z,96757.91
2022-08-11T18:43:39.736Z,96757.69
2022-08-11T18:46:27.588Z,96752.06
2022-08-11T18:49:19.431Z,96756.03
2022-08-11T18:52:07.125Z,96764.31
2022-08-11T18:54:55.275Z,96764.53
2022-08-11T18:57:50.056Z,96770.13
2022-08-11T19:00:44.803Z,96766.78
2022-08-11T19:03:43.394Z,96766.78
2022-08-11T19:06:39.724Z,96772.97
2022-08-11T19:09:28.646Z,96779.97
2022-08-11T19:12:16.849Z,96783.47
2022-08-11T19:15:04.042Z,96788.25
2022-08-11T19:17:54.023Z,96796.09
2022-08-11T19:20:41.745Z,96789.38
2022-08-11T19:23:29.631Z,96792.63
2022-08-11T19:26:16.394Z,96793.00
2022-08-11T19:29:06.650Z,96798.34
2022-08-11T19:31:52.788Z,96805.38
2022-08-11T19:34:42.086Z,96798.25
2022-08-11T19:37:29.942Z,96797.56
2022-08-11T19:40:19.998Z,96804.38
2022-08-11T19:43:14.930Z,96808.72
2022-08-11T19:46:15.104Z,96805.31
2022-08-11T19:49:02.390Z,96802.91
2022-08-11T19:51:53.457Z,96800.78
2022-08-11T19:54:42.856Z,96810.88
2022-08-11T19:57:29.109Z,96800.88
2022-08-11T20:03:00.725Z,96809.38
2022-08-11T20:05:55.299Z,96812.88
2022-08-11T20:08:48.520Z,96802.00
2022-08-11T20:11:36.154Z,96810.81
2022-08-11T20:14:23.419Z,96808.34
2022-08-11T20:17:10.656Z,96805.09
2022-08-11T20:19:57.487Z,96813.63
2022-08-11T20:22:45.228Z,96808.41
2022-08-11T20:25:33.401Z,96801.28
2022-08-11T20:28:20.972Z,96807.16
2022-08-11T20:31:07.288Z,96811.56
2022-08-11T20:33:53.095Z,96808.41
2022-08-11T20:36:38.864Z,96813.13
2022-08-11T20:39:25.680Z,96809.72
2022-08-11T20:42:14.287Z,96814.91
2022-08-11T20:45:01.150Z,96816.03
2022-08-11T20:47:56.155Z,96814.53
2022-08-11T20:50:46.003Z,96813.72
2022-08-11T20:53:36.070Z,96823.09
2022-08-11T20:56:28.877Z,96820.56
2022-08-11T20:59:21.587Z,96814.38
2022-08-11T21:02:10.554Z,96822.34
2022-08-11T21:05:00.326Z,96821.69
2022-08-11T21:07:57.088Z,96824.47
2022-08-11T21:10:46.913Z,96824.81
2022-08-11T21:13:34.382Z,96822.94
2022-08-11T21:16:27.211Z,96822.22
2022-08-11T21:20:00.681Z,96818.75
2022-08-11T21:22:28.074Z,96826.00
2022-08-11T21:25:15.973Z,96824.53
2022-08-11T21:28:03.539Z,96829.63
2022-08-11T21:30:51.701Z,96837.69
2022-08-11T21:33:41.258Z,96831.66
2022-08-11T21:36:28.625Z,96835.69
2022-08-11T21:39:14.373Z,96836.06
2022-08-11T21:42:00.202Z,96830.22
2022-08-11T21:44:46.353Z,96837.50
2022-08-11T21:47:42.786Z,96835.94
2022-08-11T21:50:30.806Z,96834.47
2022-08-11T21:53:17.099Z,96838.09
2022-08-11T21:56:03.337Z,96832.56
2022-08-11T21:58:48.996Z,96832.13
2022-08-11T22:01:34.871Z,96834.81
2022-08-11T22:04:21.672Z,96830.09
2022-08-11T22:07:09.224Z,96824.97
2022-08-11T22:09:55.184Z,96831.16
2022-08-11T22:12:44.749Z,96828.03
2022-08-11T22:15:31.470Z,96829.19
2022-08-11T22:18:16.658Z,96829.84
2022-08-11T22:21:03.488Z,96825.66
2022-08-11T22:23:53.164Z,96823.00
2022-08-11T22:26:41.198Z,96824.19
2022-08-11T22:29:49.975Z,96829.19
2022-08-11T22:32:33.860Z,96819.97
2022-08-11T22:35:21.785Z,96822.00
2022-08-11T22:38:07.840Z,96820.97
2022-08-11T22:40:55.331Z,96821.63
2022-08-11T22:43:40.573Z,96818.28
2022-08-11T22:46:26.746Z,96820.13
2022-08-11T22:49:13.987Z,96822.81
2022-08-11T22:52:01.225Z,96814.94
2022-08-11T22:54:47.923Z,96821.50
2022-08-11T22:57:34.793Z,96821.31
2022-08-11T23:00:20.583Z,96819.34
2022-08-11T23:03:07.244Z,96816.84
2022-08-11T23:05:57.150Z,96814.34
2022-08-11T23:08:42.815Z,96811.00
2022-08-11T23:11:55.309Z,96816.84
2022-08-11T23:14:36.053Z,96818.22
2022-08-11T23:17:21.295Z,96809.69
2022-08-11T23:20:28.835Z,96813.91
2022-08-11T23:23:13.834Z,96804.06
2022-08-11T23:26:00.709Z,96813.13
2022-08-11T23:28:47.865Z,96803.81
2022-08-11T23:31:43.621Z,96812.22
2022-08-11T23:35:02.937Z,96805.22
2022-08-11T23:37:44.776Z,96799.03
2022-08-11T23:40:29.964Z,96798.41
2022-08-11T23:43:16.629Z,96795.72
2022-08-11T23:46:01.762Z,96799.25
2022-08-11T23:48:49.426Z,96801.59
2022-08-11T23:51:37.861Z,96813.31
2022-08-11T23:54:27.197Z,96813.66
2022-08-11T23:57:13.428Z,96806.47
2022-08-11T23:59:58.693Z,96805.97
